createdAt,value
2022-11-05T00:00:08.180Z,2.00
2022-11-05T00:02:53.881Z,2.17
2022-11-05T00:05:39.544Z,1.67
2022-11-05T00:08:25.040Z,1.90
2022-11-05T00:10:53.201Z,2.17
2022-11-05T00:13:40.323Z,2.07
2022-11-05T00:16:34.732Z,2.00
2022-11-05T00:19:09.048Z,1.80
2022-11-05T00:21:56.267Z,2.13
2022-11-05T00:24:42.817Z,1.97
2022-11-05T00:27:11.380Z,2.30
2022-11-05T00:29:40.938Z,2.17
2022-11-05T00:32:09.118Z,2.20
2022-11-05T00:34:37.292Z,1.93
2022-11-05T00:37:05.788Z,2.13
2022-11-05T00:39:33.861Z,1.73
2022-11-05T00:42:19.620Z,1.90
2022-11-05T00:45:04.328Z,1.70
2022-11-05T00:47:51.401Z,2.20
2022-11-05T00:50:20.832Z,1.87
2022-11-05T00:52:58.110Z,2.13
2022-11-05T00:55:29.337Z,2.00
2022-11-05T00:57:58.326Z,2.20
2022-11-05T01:00:29.508Z,2.17
2022-11-05T01:03:02.037Z,1.93
2022-11-05T01:05:31.457Z,2.20
2022-11-05T01:07:59.842Z,2.40
2022-11-05T01:10:29.231Z,2.80
2022-11-05T01:12:57.813Z,2.70
2022-11-05T01:15:27.363Z,2.60
2022-11-05T01:17:56.105Z,2.93
2022-11-05T01:20:24.284Z,3.27
2022-11-05T01:22:52.353Z,2.77
2022-11-05T01:25:20.518Z,2.93
2022-11-05T01:27:48.664Z,3.30
2022-11-05T01:30:16.905Z,3.33
2022-11-05T01:32:46.782Z,3.77
2022-11-05T01:35:17.467Z,4.10
2022-11-05T01:37:45.608Z,3.33
2022-11-05T01:40:16.084Z,3.80
2022-11-05T01:42:44.735Z,3.77
2022-11-05T01:45:16.871Z,3.90
2022-11-05T01:48:02.349Z,3.90
2022-11-05T01:50:38.551Z,3.60
2022-11-05T01:53:14.235Z,4.00
2022-11-05T01:55:47.450Z,3.63
2022-11-05T01:58:19.796Z,3.70
2022-11-05T02:00:48.781Z,3.80
2022-11-05T02:03:19.274Z,3.80
2022-11-05T02:05:49.359Z,3.63
2022-11-05T02:08:23.054Z,3.87
2022-11-05T02:10:51.707Z,3.97
2022-11-05T02:13:20.192Z,3.70
2022-11-05T02:15:59.068Z,4.00
2022-11-05T02:18:41.223Z,4.17
2022-11-05T02:21:36.337Z,4.30
2022-11-05T02:24:41.904Z,4.23
2022-11-05T02:27:20.693Z,5.00
2022-11-05T02:30:09.557Z,4.60
2022-11-05T02:32:52.599Z,4.77
2022-11-05T02:35:33.157Z,4.40
2022-11-05T02:38:08.724Z,4.43
2022-11-05T02:40:47.853Z,4.77
2022-11-05T02:43:27.536Z,4.87
2022-11-05T02:46:08.872Z,4.83
2022-11-05T02:48:47.084Z,4.27
2022-11-05T02:51:23.045Z,4.57
2022-11-05T02:53:58.188Z,4.23
2022-11-05T02:56:30.143Z,4.53
2022-11-05T02:58:58.276Z,4.80
2022-11-05T03:01:26.467Z,3.97
2022-11-05T03:04:00.551Z,4.30
2022-11-05T03:06:47.581Z,4.30
2022-11-05T03:09:32.036Z,4.27
2022-11-05T03:12:08.912Z,4.17
2022-11-05T03:14:44.188Z,4.27
2022-11-05T03:17:19.998Z,3.83
2022-11-05T03:19:55.212Z,4.30
2022-11-05T03:22:27.035Z,4.27
2022-11-05T03:25:01.614Z,3.87
2022-11-05T03:27:32.802Z,4.13
2022-11-05T03:30:04.050Z,4.17
2022-11-05T03:32:35.033Z,4.33
2022-11-05T03:35:09.417Z,3.83
2022-11-05T03:37:40.864Z,4.20
2022-11-05T03:40:11.636Z,4.40
2022-11-05T03:42:45.459Z,3.70
2022-11-05T03:45:20.139Z,4.03
2022-11-05T03:47:51.591Z,3.47
2022-11-05T03:50:25.080Z,3.80
2022-11-05T03:52:55.125Z,3.97
2022-11-05T03:55:29.129Z,4.30
2022-11-05T03:57:59.462Z,3.90
2022-11-05T04:00:28.172Z,3.63
2022-11-05T04:02:56.640Z,4.00
2022-11-05T04:05:26.127Z,2.70
2022-11-05T04:08:14.506Z,3.50
2022-11-05T04:11:00.367Z,3.53
2022-11-05T04:13:29.047Z,3.37
2022-11-05T04:16:15.246Z,3.13
2022-11-05T04:18:44.271Z,3.50
2022-11-05T04:21:31.656Z,3.10
2022-11-05T04:24:12.983Z,3.47
2022-11-05T04:26:43.688Z,3.63
2022-11-05T04:29:30.110Z,3.20
2022-11-05T04:31:58.591Z,3.13
2022-11-05T04:34:27.075Z,3.07
2022-11-05T04:36:56.515Z,3.43
2022-11-05T04:39:24.579Z,3.40
2022-11-05T04:41:53.072Z,3.13
2022-11-05T04:44:21.166Z,3.33
2022-11-05T04:46:49.277Z,2.27
2022-11-05T04:49:17.492Z,3.47
2022-11-05T04:51:45.581Z,3.07
2022-11-05T04:54:15.081Z,3.50
2022-11-05T04:56:43.596Z,2.83
2022-11-05T04:59:11.717Z,3.67
2022-11-05T05:01:39.999Z,3.77
2022-11-05T05:04:08.651Z,3.53
2022-11-05T05:06:38.385Z,3.47
2022-11-05T05:09:06.665Z,3.10
2022-11-05T05:11:36.596Z,2.70
2022-11-05T05:14:04.708Z,3.70
2022-11-05T05:16:32.778Z,3.40
2022-11-05T05:19:01.296Z,3.00
2022-11-05T05:21:41.466Z,3.07
2022-11-05T05:24:11.611Z,2.70
2022-11-05T05:26:42.944Z,3.60
2022-11-05T05:29:12.445Z,3.10
2022-11-05T05:31:41.247Z,3.10
2022-11-05T05:34:11.908Z,3.00
2022-11-05T05:36:40.542Z,2.80
2022-11-05T05:39:10.961Z,3.47
2022-11-05T05:41:40.908Z,3.70
2022-11-05T05:44:09.011Z,3.57
2022-11-05T05:46:37.184Z,3.07
2022-11-05T05:49:12.042Z,3.30
2022-11-05T05:51:40.839Z,3.23
2022-11-05T05:54:09.149Z,3.13
2022-11-05T05:56:37.254Z,2.97
2022-11-05T05:59:07.924Z,2.63
2022-11-05T06:01:36.614Z,3.27
2022-11-05T06:04:05.028Z,3.03
2022-11-05T06:06:33.303Z,3.20
2022-11-05T06:09:01.787Z,3.77
2022-11-05T06:11:29.893Z,3.00
2022-11-05T06:13:57.994Z,3.07
2022-11-05T06:16:28.555Z,3.53
2022-11-05T06:18:56.717Z,3.73
2022-11-05T06:21:24.787Z,3.37
2022-11-05T06:23:53.493Z,4.47
2022-11-05T06:26:21.628Z,4.50
2022-11-05T06:28:49.724Z,3.53
2022-11-05T06:31:18.215Z,3.27
2022-11-05T06:33:47.849Z,3.10
2022-11-05T06:36:18.479Z,3.70
2022-11-05T06:38:47.042Z,3.47
2022-11-05T06:41:15.218Z,3.17
2022-11-05T06:43:43.464Z,3.03
2022-11-05T06:46:12.615Z,3.07
2022-11-05T06:48:40.818Z,3.50
2022-11-05T06:51:11.248Z,3.43
2022-11-05T06:53:39.722Z,4.20
2022-11-05T06:56:09.076Z,4.17
2022-11-05T06:58:37.321Z,3.83
2022-11-05T07:01:08.104Z,3.53
2022-11-05T07:03:36.623Z,3.23
2022-11-05T07:06:05.659Z,3.60
2022-11-05T07:08:36.410Z,3.27
2022-11-05T07:11:04.785Z,3.10
2022-11-05T07:13:33.152Z,3.67
2022-11-05T07:16:01.680Z,4.03
2022-11-05T07:18:29.782Z,4.00
2022-11-05T07:20:57.864Z,3.73
2022-11-05T07:23:26.020Z,3.60
2022-11-05T07:25:55.529Z,3.67
2022-11-05T07:28:23.727Z,4.13
2022-11-05T07:30:52.108Z,3.70
2022-11-05T07:33:20.346Z,3.73
2022-11-05T07:35:48.428Z,3.57
2022-11-05T07:38:17.007Z,3.60
2022-11-05T07:40:45.081Z,3.50
2022-11-05T07:43:14.744Z,3.90
2022-11-05T07:45:43.449Z,3.43
2022-11-05T07:48:11.564Z,3.23
2022-11-05T07:50:39.692Z,3.17
2022-11-05T07:53:09.320Z,3.10
2022-11-05T07:55:38.061Z,3.10
2022-11-05T07:58:06.164Z,3.03
2022-11-05T08:00:36.119Z,3.20
2022-11-05T08:03:08.509Z,3.17
2022-11-05T08:05:40.351Z,3.10
2022-11-05T08:08:09.771Z,2.77
2022-11-05T08:10:38.853Z,2.97
2022-11-05T08:13:08.362Z,2.80
2022-11-05T08:15:38.074Z,3.40
2022-11-05T08:18:08.093Z,3.20
2022-11-05T08:20:37.005Z,3.00
2022-11-05T08:23:05.382Z,3.00
2022-11-05T08:25:33.955Z,3.80
2022-11-05T08:28:03.644Z,3.10
2022-11-05T08:30:32.530Z,3.97
2022-11-05T08:33:04.460Z,3.33
2022-11-05T08:35:32.867Z,2.93
2022-11-05T08:38:02.897Z,3.87
2022-11-05T08:40:32.817Z,3.40
2022-11-05T08:43:02.790Z,3.30
2022-11-05T08:45:30.999Z,3.47
2022-11-05T08:48:05.847Z,2.53
2022-11-05T08:50:35.178Z,3.17
2022-11-05T08:53:04.061Z,3.50
2022-11-05T08:55:32.194Z,3.93
2022-11-05T08:58:02.344Z,3.23
2022-11-05T09:00:32.296Z,3.40
2022-11-05T09:03:02.446Z,3.30
2022-11-05T09:05:32.136Z,3.33
2022-11-05T09:08:01.547Z,3.30
2022-11-05T09:10:29.951Z,3.77
2022-11-05T09:12:58.039Z,3.67
2022-11-05T09:15:26.387Z,3.37
2022-11-05T09:17:54.981Z,3.17
2022-11-05T09:20:24.977Z,3.73
2022-11-05T09:22:53.100Z,3.80
2022-11-05T09:25:21.276Z,3.83
2022-11-05T09:27:49.354Z,3.70
2022-11-05T09:30:18.074Z,3.77
2022-11-05T09:32:46.217Z,4.23
2022-11-05T09:35:14.348Z,4.53
2022-11-05T09:37:43.915Z,4.90
2022-11-05T09:40:18.424Z,4.77
2022-11-05T09:42:47.752Z,4.80
2022-11-05T09:45:19.787Z,4.60
2022-11-05T09:47:50.682Z,5.13
2022-11-05T09:50:23.603Z,5.33
2022-11-05T09:52:53.119Z,5.07
2022-11-05T09:55:27.887Z,5.83
2022-11-05T09:57:59.624Z,5.83
2022-11-05T10:00:30.136Z,6.90
2022-11-05T10:03:01.993Z,6.03
2022-11-05T10:05:30.899Z,6.37
2022-11-05T10:08:05.762Z,6.67
2022-11-05T10:10:41.149Z,6.13
2022-11-05T10:13:20.720Z,6.63
2022-11-05T10:15:59.516Z,6.13
2022-11-05T10:18:32.424Z,6.90
2022-11-05T10:21:01.285Z,7.20
2022-11-05T10:23:31.206Z,6.57
2022-11-05T10:26:04.318Z,7.00
2022-11-05T10:28:34.085Z,6.47
2022-11-05T10:31:05.267Z,7.60
2022-11-05T10:33:36.793Z,6.17
2022-11-05T10:36:08.714Z,6.20
2022-11-05T10:38:38.320Z,6.10
2022-11-05T10:41:22.320Z,5.83
2022-11-05T10:43:52.232Z,5.70
2022-11-05T10:46:32.535Z,5.60
2022-11-05T10:49:15.365Z,5.70
2022-11-05T10:51:44.720Z,4.70
2022-11-05T10:54:18.267Z,5.03
2022-11-05T10:56:47.000Z,5.07
2022-11-05T10:59:22.548Z,4.97
2022-11-05T11:01:58.867Z,5.10
2022-11-05T11:04:34.871Z,5.27
2022-11-05T11:07:06.014Z,4.20
2022-11-05T11:09:38.072Z,4.00
2022-11-05T11:12:09.076Z,4.50
2022-11-05T11:14:37.150Z,4.80
2022-11-05T11:17:26.801Z,4.03
2022-11-05T11:20:21.051Z,4.57
2022-11-05T11:23:04.276Z,4.37
2022-11-05T11:25:42.500Z,4.53
2022-11-05T11:28:19.871Z,4.93
2022-11-05T11:30:51.230Z,5.13
2022-11-05T11:33:24.818Z,4.60
2022-11-05T11:35:53.162Z,5.43
2022-11-05T11:38:24.331Z,5.10
2022-11-05T11:41:02.839Z,5.30
2022-11-05T11:43:34.928Z,6.00
2022-11-05T11:46:07.724Z,5.57
2022-11-05T11:48:41.206Z,4.20
2022-11-05T11:51:31.815Z,5.17
2022-11-05T11:54:01.167Z,4.47
2022-11-05T11:56:32.576Z,4.00
2022-11-05T11:59:11.347Z,4.50
2022-11-05T12:02:01.766Z,4.17
2022-11-05T12:04:48.660Z,4.00
2022-11-05T12:07:34.309Z,3.80
2022-11-05T12:10:28.051Z,4.43
2022-11-05T12:13:13.438Z,3.57
2022-11-05T12:15:47.924Z,4.60
2022-11-05T12:18:26.350Z,3.80
2022-11-05T12:21:07.791Z,3.83
2022-11-05T12:24:01.337Z,4.03
2022-11-05T12:26:40.889Z,3.93
2022-11-05T12:29:24.978Z,3.40
2022-11-05T12:32:02.761Z,2.83
2022-11-05T12:34:44.058Z,3.37
2022-11-05T12:37:25.725Z,3.27
2022-11-05T12:40:04.673Z,3.03
2022-11-05T12:42:46.482Z,2.63
2022-11-05T12:45:40.467Z,2.80
2022-11-05T12:48:24.919Z,2.53
2022-11-05T12:51:02.333Z,2.70
2022-11-05T12:53:53.200Z,2.70
2022-11-05T12:56:27.256Z,2.63
2022-11-05T12:59:04.044Z,2.30
2022-11-05T13:01:37.853Z,2.67
2022-11-05T13:04:11.775Z,2.80
2022-11-05T13:06:41.890Z,2.73
2022-11-05T13:09:16.396Z,2.20
2022-11-05T13:11:49.531Z,2.80
2022-11-05T13:14:22.617Z,2.50
2022-11-05T13:16:56.239Z,2.27
2022-11-05T13:19:30.691Z,2.00
2022-11-05T13:22:07.926Z,2.43
2022-11-05T13:24:41.519Z,2.20
2022-11-05T13:27:29.121Z,2.27
2022-11-05T13:30:03.068Z,2.23
2022-11-05T13:32:35.499Z,2.07
2022-11-05T13:35:08.855Z,2.20
2022-11-05T13:37:59.224Z,2.20
2022-11-05T13:40:39.175Z,2.30
2022-11-05T13:43:18.714Z,2.50
2022-11-05T13:46:07.983Z,1.87
2022-11-05T13:48:58.077Z,2.20
2022-11-05T13:51:49.568Z,2.40
2022-11-05T13:54:58.888Z,2.07
2022-11-05T13:58:03.639Z,2.07
2022-11-05T14:00:38.157Z,2.40
2022-11-05T14:03:16.042Z,2.67
2022-11-05T14:05:54.441Z,1.90
2022-11-05T14:08:27.705Z,2.40
2022-11-05T14:11:01.859Z,2.63
2022-11-05T14:13:34.445Z,2.60
2022-11-05T14:16:06.486Z,2.50
2022-11-05T14:18:43.329Z,2.67
2022-11-05T14:21:41.089Z,2.47
2022-11-05T14:24:45.820Z,2.43
2022-11-05T14:27:45.647Z,2.77
2022-11-05T14:30:42.544Z,2.77
2022-11-05T14:33:33.158Z,3.00
2022-11-05T14:36:34.740Z,3.10
2022-11-05T14:39:21.607Z,2.60
2022-11-05T14:42:03.307Z,2.90
2022-11-05T14:44:33.767Z,3.27
2022-11-05T14:47:05.618Z,2.90
2022-11-05T14:49:37.911Z,2.73
2022-11-05T14:52:11.887Z,3.03
2022-11-05T14:54:45.917Z,2.70
2022-11-05T14:57:36.977Z,2.80
2022-11-05T15:00:07.819Z,3.23
2022-11-05T15:02:39.854Z,2.87
2022-11-05T15:05:41.090Z,2.87
2022-11-05T15:08:36.666Z,3.00
2022-11-05T15:11:19.439Z,2.90
2022-11-05T15:14:00.648Z,3.27
2022-11-05T15:16:35.058Z,3.07
2022-11-05T15:19:04.407Z,3.00
2022-11-05T15:21:36.964Z,2.90
2022-11-05T15:24:06.329Z,2.83
2022-11-05T15:26:55.278Z,2.80
2022-11-05T15:29:30.407Z,2.60
2022-11-05T15:31:59.629Z,2.43
2022-11-05T15:34:30.913Z,3.13
2022-11-05T15:37:01.469Z,2.97
2022-11-05T15:39:33.296Z,2.80
2022-11-05T15:42:05.863Z,2.50
2022-11-05T15:44:39.759Z,2.50
2022-11-05T15:47:13.299Z,2.53
2022-11-05T15:49:43.269Z,2.80
2022-11-05T15:52:13.571Z,2.73
2022-11-05T15:54:42.026Z,2.43
2022-11-05T15:57:21.797Z,3.23
2022-11-05T15:59:51.504Z,3.93
2022-11-05T16:02:31.928Z,2.67
2022-11-05T16:05:02.160Z,2.77
2022-11-05T16:07:31.113Z,3.23
2022-11-05T16:10:01.180Z,3.23
2022-11-05T16:12:34.547Z,3.40
2022-11-05T16:15:19.916Z,3.37
2022-11-05T16:17:54.107Z,3.30
2022-11-05T16:20:26.389Z,3.20
2022-11-05T16:22:56.544Z,3.03
2022-11-05T16:25:42.937Z,2.97
2022-11-05T16:28:23.254Z,3.40
2022-11-05T16:30:58.126Z,3.30
2022-11-05T16:33:28.409Z,2.87
2022-11-05T16:35:56.526Z,3.40
2022-11-05T16:38:25.413Z,3.70
2022-11-05T16:40:53.612Z,3.97
2022-11-05T16:43:23.618Z,3.83
2022-11-05T16:45:55.062Z,4.10
2022-11-05T16:48:24.904Z,4.50
2022-11-05T16:50:53.473Z,3.87
2022-11-05T16:53:21.880Z,4.37
2022-11-05T16:55:50.379Z,4.97
2022-11-05T16:58:21.870Z,4.10
2022-11-05T17:00:51.883Z,4.30
2022-11-05T17:03:20.228Z,4.40
2022-11-05T17:05:49.877Z,4.60
2022-11-05T17:08:17.989Z,4.40
2022-11-05T17:10:46.217Z,4.40
2022-11-05T17:13:16.319Z,4.10
2022-11-05T17:15:46.498Z,4.20
2022-11-05T17:18:18.546Z,4.50
2022-11-05T17:20:51.059Z,3.73
2022-11-05T17:23:20.808Z,4.23
2022-11-05T17:25:53.189Z,4.60
2022-11-05T17:28:21.828Z,4.40
2022-11-05T17:30:53.060Z,4.77
2022-11-05T17:33:22.791Z,4.63
2022-11-05T17:35:53.417Z,3.93
2022-11-05T17:38:22.548Z,4.60
2022-11-05T17:40:51.282Z,4.57
2022-11-05T17:43:20.184Z,4.97
2022-11-05T17:45:50.358Z,5.47
2022-11-05T17:48:18.768Z,4.83
2022-11-05T17:50:49.296Z,4.87
2022-11-05T17:53:20.043Z,4.80
2022-11-05T17:55:48.977Z,5.10
2022-11-05T17:58:17.423Z,4.43
2022-11-05T18:00:47.455Z,5.17
2022-11-05T18:03:15.972Z,5.10
2022-11-05T18:05:44.401Z,4.93
2022-11-05T18:08:13.332Z,5.60
2022-11-05T18:10:43.235Z,5.20
2022-11-05T18:13:12.159Z,5.40
2022-11-05T18:15:41.226Z,5.50
2022-11-05T18:18:10.227Z,4.90
2022-11-05T18:20:38.519Z,4.97
2022-11-05T18:23:06.801Z,4.27
2022-11-05T18:25:35.252Z,5.30
2022-11-05T18:28:04.988Z,4.70
2022-11-05T18:30:33.131Z,5.27
2022-11-05T18:33:01.788Z,4.30
2022-11-05T18:35:29.916Z,5.30
2022-11-05T18:37:58.015Z,5.50
2022-11-05T18:40:26.143Z,5.30
2022-11-05T18:42:54.787Z,6.63
2022-11-05T18:45:29.384Z,5.80
2022-11-05T18:47:58.233Z,5.83
2022-11-05T18:50:26.420Z,5.70
2022-11-05T18:52:54.529Z,6.03
2022-11-05T18:55:23.045Z,5.17
2022-11-05T18:57:51.177Z,6.87
2022-11-05T19:00:20.307Z,5.53
2022-11-05T19:02:50.010Z,5.90
2022-11-05T19:05:33.732Z,6.50
2022-11-05T19:08:02.565Z,10.90
2022-11-05T19:10:30.847Z,9.20
2022-11-05T19:12:58.976Z,8.10
2022-11-05T19:15:27.368Z,8.37
2022-11-05T19:17:59.061Z,9.20
2022-11-05T19:20:28.082Z,5.90
2022-11-05T19:22:56.315Z,5.23
2022-11-05T19:25:24.447Z,5.57
2022-11-05T19:27:52.525Z,5.53
2022-11-05T19:30:20.728Z,5.43
2022-11-05T19:32:48.815Z,5.37
2022-11-05T19:35:18.879Z,5.67
2022-11-05T19:37:47.056Z,4.97
2022-11-05T19:40:15.170Z,5.77
2022-11-05T19:42:43.348Z,5.90
2022-11-05T19:45:30.837Z,5.20
2022-11-05T19:48:00.600Z,4.87
2022-11-05T19:50:30.125Z,4.70
2022-11-05T19:52:58.259Z,4.43
2022-11-05T19:55:26.600Z,3.60
2022-11-05T19:57:55.295Z,4.33
2022-11-05T20:00:23.532Z,4.53
2022-11-05T20:02:51.849Z,3.67
2022-11-05T20:05:20.181Z,4.33
2022-11-05T20:07:53.117Z,3.77
2022-11-05T20:10:21.880Z,3.40
2022-11-05T20:12:50.094Z,2.80
2022-11-05T20:15:19.696Z,3.70
2022-11-05T20:17:51.219Z,3.43
2022-11-05T20:20:20.401Z,2.43
2022-11-05T20:22:52.135Z,3.70
2022-11-05T20:25:20.227Z,3.13
2022-11-05T20:27:48.369Z,3.37
2022-11-05T20:30:16.818Z,3.47
2022-11-05T20:32:44.989Z,3.40
2022-11-05T20:35:13.092Z,2.27
2022-11-05T20:37:41.344Z,3.43
2022-11-05T20:40:14.024Z,3.43
2022-11-05T20:42:43.142Z,3.17
2022-11-05T20:45:11.908Z,3.30
2022-11-05T20:47:40.161Z,3.00
2022-11-05T20:50:10.037Z,3.07
2022-11-05T20:52:38.146Z,2.90
2022-11-05T20:55:09.142Z,2.80
2022-11-05T20:57:38.911Z,2.10
2022-11-05T21:00:08.686Z,2.47
2022-11-05T21:02:39.284Z,2.87
2022-11-05T21:05:08.788Z,2.43
2022-11-05T21:07:36.903Z,2.97
2022-11-05T21:10:05.595Z,2.67
2022-11-05T21:12:33.876Z,2.37
2022-11-05T21:15:03.320Z,2.37
2022-11-05T21:17:31.452Z,2.60
2022-11-05T21:19:59.597Z,1.80
2022-11-05T21:22:27.816Z,1.93
2022-11-05T21:24:56.776Z,2.07
2022-11-05T21:27:25.412Z,1.70
2022-11-05T21:29:53.504Z,2.40
2022-11-05T21:32:22.936Z,2.17
2022-11-05T21:34:51.115Z,2.47
2022-11-05T21:37:19.248Z,2.03
2022-11-05T21:39:47.507Z,1.77
2022-11-05T21:42:15.583Z,2.00
2022-11-05T21:44:43.664Z,2.10
2022-11-05T21:47:11.809Z,2.30
2022-11-05T21:49:41.772Z,2.83
2022-11-05T21:52:29.663Z,1.77
2022-11-05T21:55:15.792Z,2.23
2022-11-05T21:58:01.462Z,2.10
2022-11-05T22:00:30.490Z,2.30
2022-11-05T22:02:59.978Z,1.60
2022-11-05T22:05:29.661Z,2.00
2022-11-05T22:07:57.783Z,2.03
2022-11-05T22:10:26.069Z,1.60
2022-11-05T22:12:54.224Z,2.27
2022-11-05T22:15:22.333Z,2.07
2022-11-05T22:17:51.405Z,1.87
2022-11-05T22:20:20.092Z,2.40
2022-11-05T22:22:49.842Z,1.77
2022-11-05T22:25:18.034Z,2.23
2022-11-05T22:27:46.574Z,2.13
2022-11-05T22:30:15.744Z,1.83
2022-11-05T22:32:43.815Z,2.00
2022-11-05T22:35:12.109Z,1.90
2022-11-05T22:37:40.340Z,2.00
2022-11-05T22:40:10.869Z,1.53
2022-11-05T22:42:39.067Z,1.50
2022-11-05T22:45:08.120Z,1.70
2022-11-05T22:47:36.487Z,1.80
2022-11-05T22:50:06.232Z,2.27
2022-11-05T22:52:34.313Z,1.20
2022-11-05T22:55:05.247Z,1.80
2022-11-05T22:57:35.105Z,1.33
2022-11-05T23:00:04.854Z,1.43
2022-11-05T23:02:33.093Z,1.63
2022-11-05T23:05:01.803Z,1.50
2022-11-05T23:07:47.433Z,1.77
2022-11-05T23:10:33.057Z,1.80
2022-11-05T23:13:04.321Z,1.40
2022-11-05T23:16:01.559Z,1.70
2022-11-05T23:18:46.976Z,1.60
2022-11-05T23:21:32.571Z,1.73
2022-11-05T23:24:06.783Z,1.70
2022-11-05T23:26:51.182Z,1.60
2022-11-05T23:29:22.233Z,1.40
2022-11-05T23:32:08.378Z,1.70
2022-11-05T23:34:36.819Z,1.90
2022-11-05T23:37:22.876Z,1.63
2022-11-05T23:39:51.412Z,2.00
2022-11-05T23:42:36.830Z,1.70
2022-11-05T23:45:24.621Z,1.53
2022-11-05T23:48:10.397Z,1.43
2022-11-05T23:50:40.215Z,1.40
2022-11-05T23:53:08.926Z,1.73
2022-11-05T23:55:37.464Z,1.23
2022-11-05T23:58:05.615Z,1.63
